Visitor — CQBK — position and weather

sailwx.info

Track history (hours):
 
Tides and Currents Weather Stations Pressure Air Temp Water Temp Dewpoint Dewpoint Depression Visibility Wind Speed Wind Dir Waves Ship Positions

Visitor

Last reported at 2018-Apr-23 02:48 UTC. Time now 2018-Apr-23 05:29 UTC.
Position N 37°25' E 015°22'.

Length 135 m; draft 7.8 m.

Type: Ship (hazmat cat D). MMSI: 255805839.

Date/timePositionNaut miles runAvg speedWind from/ knotsBaromVisibWave heightAir tempDewpointWater temp
2018-Apr-23 02:48N 37°25' E 015°22'410.5
2018-Apr-23 02:26N 37°23' E 015°26'1 0.4
2018-Apr-23 00:38N 37°24' E 015°27'0 0.5
2018-Apr-23 00:19N 37°24' E 015°27'0 0.5
2018-Apr-23 00:00N 37°24' E 015°27'0 0.3
2018-Apr-22 22:42N 37°24' E 015°27'0 0.2
2018-Apr-22 22:27N 37°24' E 015°27'0 0.2
2018-Apr-22 20:32N 37°24' E 015°27'1 6.1
2018-Apr-22 20:27N 37°24' E 015°28'6 7.8
2018-Apr-22 19:39N 37°31' E 015°29'0 0.4
2018-Apr-22 19:30N 37°30' E 015°29'0 0.4
2018-Apr-22 19:00N 37°30' E 015°29'0 0.4
2018-Apr-22 18:30N 37°30' E 015°29'0 0.5
2018-Apr-22 18:00N 37°30' E 015°29'2 0.6
2018-Apr-22 14:51N 37°28' E 015°30'0 0.8
2018-Apr-22 14:19N 37°28' E 015°31'0 0.8
2018-Apr-22 13:49N 37°28' E 015°31'12 3.7
2018-Apr-22 10:31N 37°40' E 015°31'011.7
2018-Apr-22 10:29N 37°40' E 015°31'611.7
2018-Apr-22 10:00N 37°46' E 015°31'811.5
2018-Apr-22 09:15N 37°55' E 015°31'413.6
2018-Apr-22 08:56N 37°59' E 015°32'716.4
2018-Apr-22 08:29N 38°06' E 015°34'816.0
2018-Apr-22 08:00N 38°14' E 015°36'611.7
2018-Apr-22 07:30N 38°18' E 015°41'612.8
2018-Apr-22 07:00N 38°23' E 015°36'713.3
2018-Apr-22 06:30N 38°28' E 015°30'612.9
2018-Apr-22 06:00N 38°33' E 015°24'712.9
2018-Apr-22 05:29N 38°37' E 015°18'612.7
2018-Apr-22 04:59N 38°42' E 015°13'611.3
2018-Apr-22 04:29N 38°44' E 015°06'712.5
2018-Apr-22 03:56N 38°44' E 014°57'4712.9
2018-Apr-22 00:17N 38°35' E 013°58'413.4
2018-Apr-22 00:01N 38°34' E 013°53'713.2
2018-Apr-21 23:30N 38°32' E 013°45'612.9
2018-Apr-21 23:00N 38°30' E 013°37'713.3
2018-Apr-21 22:31N 38°28' E 013°29'713.1
2018-Apr-21 22:01N 38°26' E 013°21'713.3
2018-Apr-21 21:31N 38°24' E 013°13'713.1
2018-Apr-21 21:00N 38°23' E 013°05'713.3
2018-Apr-21 20:31N 38°20' E 012°57'713.2
2018-Apr-21 20:00N 38°18' E 012°49'16 1.2
2018-Apr-21 06:40N 38°13' E 012°30'211.8
2018-Apr-21 06:28N 38°15' E 012°31'511.5
2018-Apr-21 06:00N 38°19' E 012°34'611.1
2018-Apr-21 05:30N 38°24' E 012°38'5911.5
2018-Apr-21 00:22N 39°16' E 013°14'411.6
2018-Apr-21 00:00N 39°20' E 013°17'611.4
2018-Apr-20 23:31N 39°25' E 013°20'611.4
2018-Apr-20 23:00N 39°30' E 013°23'611.4
2018-Apr-20 22:30N 39°35' E 013°26'611.4
2018-Apr-20 22:01N 39°40' E 013°30'611.7
2018-Apr-20 21:30N 39°45' E 013°34'611.9
2018-Apr-20 21:01N 39°50' E 013°37'611.8
2018-Apr-20 20:31N 39°56' E 013°41'611.6
2018-Apr-20 20:01N 40°01' E 013°44'611.5
2018-Apr-20 19:30N 40°06' E 013°48'611.8
2018-Apr-20 19:00N 40°11' E 013°51'611.9
2018-Apr-20 18:29N 40°16' E 013°56'612.4
2018-Apr-20 18:00N 40°22' E 013°59'612.4
2018-Apr-20 17:30N 40°27' E 014°03'612.4
2018-Apr-20 17:00N 40°33' E 014°07'612.6
2018-Apr-20 16:30N 40°38' E 014°10'612.4
2018-Apr-20 16:00N 40°43' E 014°15'510.4
2018-Apr-20 15:30N 40°48' E 014°17'2 4.2
2018-Apr-20 15:00N 40°50' E 014°17'0 0.0
2018-Apr-20 14:30N 40°50' E 014°17'0 0.0
2018-Apr-20 14:00N 40°50' E 014°17'0 0.0
2018-Apr-20 13:30N 40°50' E 014°17'0 0.0
2018-Apr-20 13:00N 40°50' E 014°17'0 0.0
2018-Apr-20 12:30N 40°50' E 014°17'0 0.0
2018-Apr-20 12:00N 40°50' E 014°17'0 0.0
2018-Apr-20 11:30N 40°50' E 014°17'0 0.0
2018-Apr-20 11:00N 40°50' E 014°17'0 0.0
2018-Apr-20 10:30N 40°50' E 014°17'0 0.0
2018-Apr-20 10:00N 40°50' E 014°17'0 0.0
2018-Apr-20 09:31N 40°50' E 014°17'0 0.0
2018-Apr-20 09:00N 40°50' E 014°17'0 0.0
2018-Apr-20 08:30N 40°50' E 014°17'0 0.0
2018-Apr-20 08:01N 40°50' E 014°17'0 0.0
2018-Apr-20 07:30N 40°50' E 014°17'0 0.0
2018-Apr-20 07:00N 40°50' E 014°17'0 0.0
2018-Apr-20 06:31N 40°50' E 014°17'0 0.0
2018-Apr-20 06:00N 40°50' E 014°17'0 0.1
2018-Apr-20 05:30N 40°50' E 014°17'1 3.0
2018-Apr-20 05:01N 40°49' E 014°17'510.9
2018-Apr-20 04:31N 40°44' E 014°14'714.6
2018-Apr-20 04:00N 40°39' E 014°07'714.4
2018-Apr-20 03:30N 40°37' E 013°58'915.3
2018-Apr-20 02:53N 40°37' E 013°45'615.2
2018-Apr-20 02:30N 40°37' E 013°38'714.6
2018-Apr-20 02:01N 40°38' E 013°28'714.4
2018-Apr-20 01:30N 40°41' E 013°19'814.4
2018-Apr-20 00:56N 40°44' E 013°09'14814.4
2018-Apr-19 14:39N 42°18' E 010°38'1014.4
2018-Apr-19 13:56N 42°25' E 010°27'1114.3
2018-Apr-19 13:12N 42°32' E 010°17'2712.5
2018-Apr-19 11:05N 42°57' E 010°04'214.4
2018-Apr-19 10:54N 42°59' E 010°04'615.0
2018-Apr-19 10:30N 43°05' E 010°05'714.7
2018-Apr-19 10:00N 43°13' E 010°07'815.2
2018-Apr-19 09:30N 43°20' E 010°09'815.6
2018-Apr-19 09:00N 43°28' E 010°12'510.2
2018-Apr-19 08:30N 43°32' E 010°16'3 6.2
2018-Apr-19 08:00N 43°34' E 010°18'0 0.5
2018-Apr-19 07:28N 43°35' E 010°18'0 0.0
2018-Apr-19 06:58N 43°35' E 010°18'0 0.0
2018-Apr-19 06:28N 43°35' E 010°18'0 0.0
2018-Apr-19 05:58N 43°35' E 010°18'0 0.0
2018-Apr-19 05:31N 43°35' E 010°18'0 0.0
2018-Apr-19 04:58N 43°35' E 010°18'0 0.0
2018-Apr-19 04:30N 43°35' E 010°18'0 0.0
2018-Apr-19 04:00N 43°35' E 010°18'0 0.0
2018-Apr-19 03:30N 43°35' E 010°18'0 0.0
2018-Apr-19 03:00N 43°35' E 010°18'0 0.0
2018-Apr-19 02:30N 43°35' E 010°18'0 0.0
2018-Apr-19 02:00N 43°35' E 010°18'0 0.0
2018-Apr-19 01:30N 43°35' E 010°18'0 0.0
2018-Apr-19 01:00N 43°35' E 010°18'0 0.0
2018-Apr-19 00:30N 43°35' E 010°18'0 0.0
2018-Apr-19 00:00N 43°35' E 010°18'0 0.0
2018-Apr-18 23:30N 43°35' E 010°18'0 0.0
2018-Apr-18 23:00N 43°35' E 010°18'0 0.0
2018-Apr-18 22:30N 43°35' E 010°18'0 0.0
2018-Apr-18 22:00N 43°35' E 010°18'0 0.0
2018-Apr-18 21:30N 43°35' E 010°18'0 0.0
2018-Apr-18 21:00N 43°35' E 010°18'0 0.0
2018-Apr-18 20:30N 43°35' E 010°18'0 0.0
2018-Apr-18 20:00N 43°35' E 010°18'0 0.0
2018-Apr-18 19:30N 43°35' E 010°18'0 0.0
2018-Apr-18 19:00N 43°35' E 010°18'0 0.0
2018-Apr-18 18:30N 43°35' E 010°18'1 2.4
2018-Apr-18 18:00N 43°33' E 010°18'3 6.6
2018-Apr-18 17:30N 43°31' E 010°15'0 0.5
2018-Apr-18 17:00N 43°31' E 010°16'2 4.1
2018-Apr-18 16:30N 43°29' E 010°16'1 2.8
2018-Apr-18 16:00N 43°27' E 010°16'0 0.6
2018-Apr-18 15:30N 43°27' E 010°16'2 3.3
2018-Apr-18 15:00N 43°28' E 010°15'5 9.6
2018-Apr-18 14:30N 43°29' E 010°08'612.5
2018-Apr-18 14:00N 43°31' E 009°60'612.8
2018-Apr-18 13:30N 43°33' E 009°52'612.9
2018-Apr-18 13:00N 43°36' E 009°44'713.8
2018-Apr-18 12:30N 43°40' E 009°36'713.5
2018-Apr-18 12:00N 43°45' E 009°30'713.3
2018-Apr-18 11:30N 43°49' E 009°23'713.2
2018-Apr-18 11:00N 43°54' E 009°16'713.2
2018-Apr-18 10:30N 43°59' E 009°10'713.3
2018-Apr-18 10:00N 44°04' E 009°04'713.2
2018-Apr-18 09:30N 44°09' E 008°58'613.0
2018-Apr-18 09:00N 44°13' E 008°51'713.1
2018-Apr-18 08:30N 44°18' E 008°46'611.7
2018-Apr-18 08:00N 44°24' E 008°44'3 5.3
2018-Apr-18 07:29N 44°25' E 008°48'0 0.0
2018-Apr-18 06:59N 44°25' E 008°48'0 0.0
2018-Apr-18 06:29N 44°25' E 008°48'0 0.0
2018-Apr-18 05:59N 44°25' E 008°48'0 0.0
2018-Apr-18 05:29N 44°25' E 008°48'0 0.0
2018-Apr-18 04:59N 44°25' E 008°48'0 0.0
2018-Apr-18 04:29N 44°25' E 008°48'0 0.0
2018-Apr-18 03:59N 44°25' E 008°48'0 0.0
2018-Apr-18 03:23N 44°25' E 008°48'0 0.0
2018-Apr-18 02:59N 44°25' E 008°48'0 0.0
2018-Apr-18 02:29N 44°25' E 008°48'0 0.0
2018-Apr-18 01:59N 44°25' E 008°48'0 0.0
2018-Apr-18 01:29N 44°25' E 008°48'0 0.0
2018-Apr-18 00:53N 44°25' E 008°48'0 0.0
2018-Apr-18 00:26N 44°25' E 008°48'0 0.0
2018-Apr-17 23:59N 44°25' E 008°48'0 0.0
2018-Apr-17 23:29N 44°25' E 008°48'0 0.0
2018-Apr-17 22:59N 44°25' E 008°48'0 0.0
2018-Apr-17 22:29N 44°25' E 008°48'0 0.0
2018-Apr-17 21:59N 44°25' E 008°48'0 0.0
2018-Apr-17 21:29N 44°25' E 008°48'0 0.0
2018-Apr-17 20:59N 44°25' E 008°48'0 0.0
2018-Apr-17 20:29N 44°25' E 008°48'0 0.0
2018-Apr-17 19:59N 44°25' E 008°48'0 0.0
2018-Apr-17 19:29N 44°25' E 008°48'0 0.0
2018-Apr-17 18:59N 44°25' E 008°48'0 0.0
2018-Apr-17 18:29N 44°25' E 008°48'0 0.0
2018-Apr-17 17:59N 44°25' E 008°48'0 0.0
2018-Apr-17 17:29N 44°25' E 008°48'0 0.0
2018-Apr-17 17:00N 44°25' E 008°48'0 0.0
2018-Apr-17 16:30N 44°25' E 008°48'0 0.0
2018-Apr-17 16:00N 44°25' E 008°48'0 0.0
2018-Apr-17 15:30N 44°25' E 008°48'0 0.0
2018-Apr-17 15:00N 44°25' E 008°48'0 0.0
2018-Apr-17 14:30N 44°25' E 008°48'0 0.0
2018-Apr-17 14:00N 44°25' E 008°48'0 0.0
2018-Apr-17 13:30N 44°25' E 008°48'0 0.0
2018-Apr-17 13:00N 44°25' E 008°48'0 0.0
2018-Apr-17 12:30N 44°25' E 008°48'0 0.0
2018-Apr-17 12:00N 44°25' E 008°48'0 0.0
2018-Apr-17 11:30N 44°25' E 008°48'0 0.0
2018-Apr-17 11:00N 44°25' E 008°48'2 4.0
2018-Apr-17 10:30N 44°25' E 008°45'2 3.8
2018-Apr-17 10:00N 44°23' E 008°44'4 7.1
2018-Apr-17 09:30N 44°19' E 008°45'4 7.4
2018-Apr-17 09:00N 44°19' E 008°50'4 7.7
2018-Apr-17 08:30N 44°19' E 008°55'3 6.7
2018-Apr-17 08:00N 44°22' E 008°57'3 6.3
2018-Apr-17 07:29N 44°24' E 008°54'0 0.0
2018-Apr-17 06:59N 44°24' E 008°54'0 0.0
2018-Apr-17 06:29N 44°24' E 008°54'0 0.0
2018-Apr-17 05:59N 44°24' E 008°54'0 0.0
2018-Apr-17 05:29N 44°24' E 008°54'0 0.0
2018-Apr-17 04:59N 44°24' E 008°54'0 0.0
2018-Apr-17 04:29N 44°24' E 008°54'0 0.0
2018-Apr-17 03:59N 44°24' E 008°54'0 0.0
2018-Apr-17 03:29N 44°24' E 008°54'0 0.0
2018-Apr-17 02:56N 44°24' E 008°54'0 0.0
2018-Apr-17 02:29N 44°24' E 008°54'0 0.0
2018-Apr-17 01:59N 44°24' E 008°54'0 0.0
2018-Apr-17 01:29N 44°24' E 008°54'0 0.0
2018-Apr-17 00:59N 44°24' E 008°54'0 0.0
2018-Apr-17 00:29N 44°24' E 008°54'0 0.0
2018-Apr-16 23:59N 44°24' E 008°54'0 0.0
2018-Apr-16 23:29N 44°24' E 008°54'0 0.0
2018-Apr-16 22:59N 44°24' E 008°54'0 0.0
2018-Apr-16 22:29N 44°24' E 008°54'0 1.0
2018-Apr-16 22:00N 44°24' E 008°54'0 0.9
2018-Apr-16 21:28N 44°24' E 008°55'0 0.0
2018-Apr-16 20:55N 44°24' E 008°55'0 0.0
2018-Apr-16 20:28N 44°24' E 008°55'0 0.0
2018-Apr-16 19:58N 44°24' E 008°55'0 0.0
2018-Apr-16 19:28N 44°24' E 008°55'0 0.0
2018-Apr-16 18:58N 44°24' E 008°55'0 0.0
2018-Apr-16 18:28N 44°24' E 008°55'0 0.0
2018-Apr-16 17:58N 44°24' E 008°55'0 0.0
2018-Apr-16 17:28N 44°24' E 008°55'0 0.0
2018-Apr-16 16:58N 44°24' E 008°55'0 0.0
2018-Apr-16 16:30N 44°24' E 008°55'0 0.0
2018-Apr-16 16:00N 44°24' E 008°55'0 0.0
2018-Apr-16 15:30N 44°24' E 008°55'0 0.0
2018-Apr-16 15:00N 44°24' E 008°55'0 0.0
2018-Apr-16 14:30N 44°24' E 008°55'0 0.0
2018-Apr-16 14:00N 44°24' E 008°55'0 0.0
2018-Apr-16 13:30N 44°24' E 008°55'0 0.0
2018-Apr-16 13:00N 44°24' E 008°55'0 0.0
2018-Apr-16 12:30N 44°24' E 008°55'0 0.0
2018-Apr-16 12:00N 44°24' E 008°55'0 0.0
2018-Apr-16 11:30N 44°24' E 008°55'0 0.0
2018-Apr-16 11:00N 44°24' E 008°55'0 0.0
2018-Apr-16 10:30N 44°24' E 008°55'0 0.0
2018-Apr-16 10:00N 44°24' E 008°55'0 0.0
2018-Apr-16 09:30N 44°24' E 008°55'0 0.1
2018-Apr-16 09:00N 44°24' E 008°55'2 4.6
2018-Apr-16 08:30N 44°23' E 008°57'3 5.2
2018-Apr-16 08:00N 44°22' E 009°01'0 0.3
2018-Apr-16 07:30N 44°22' E 009°01'0 0.3
2018-Apr-16 07:00N 44°21' E 009°01'0 0.1
2018-Apr-16 06:30N 44°21' E 009°01'0 0.1
2018-Apr-16 06:00N 44°22' E 009°01'0 0.1
2018-Apr-16 05:30N 44°21' E 009°01'0 0.2
2018-Apr-16 05:00N 44°21' E 009°01'0 0.0
2018-Apr-16 04:27N 44°21' E 009°01'0 0.1
2018-Apr-16 03:57N 44°21' E 009°01'0 0.1
2018-Apr-16 03:30N 44°21' E 009°01'0 0.2
2018-Apr-16 03:00N 44°22' E 009°01'0 0.0
2018-Apr-16 02:30N 44°22' E 009°01'0 0.0
2018-Apr-16 02:00N 44°22' E 009°01'0 0.1
2018-Apr-16 01:30N 44°22' E 009°01'0 0.3
2018-Apr-16 01:00N 44°21' E 009°01'0 0.1
2018-Apr-16 00:30N 44°21' E 009°01'0 0.1
2018-Apr-16 00:00N 44°21' E 009°01'0 0.0
2018-Apr-15 23:30N 44°21' E 009°01'0 0.1
2018-Apr-15 23:00N 44°21' E 009°01'0 0.0
2018-Apr-15 22:30N 44°21' E 009°01'0 0.1
2018-Apr-15 22:00N 44°21' E 009°01'0 0.0
2018-Apr-15 21:30N 44°21' E 009°01'0 0.0
2018-Apr-15 20:57N 44°21' E 009°01'0 0.0
2018-Apr-15 20:30N 44°21' E 009°01'0 0.1
2018-Apr-15 20:00N 44°21' E 009°01'0 0.1
2018-Apr-15 19:30N 44°21' E 009°01'0 0.0
2018-Apr-15 19:00N 44°21' E 009°01'0 0.0
2018-Apr-15 18:30N 44°21' E 009°01'0 0.0
2018-Apr-15 18:00N 44°21' E 009°01'0 0.0
2018-Apr-15 17:30N 44°21' E 009°01'0 0.0
2018-Apr-15 17:00N 44°21' E 009°01'0 0.1
2018-Apr-15 16:27N 44°21' E 009°01'0 0.0
2018-Apr-15 16:00N 44°21' E 009°01'0 0.0
2018-Apr-15 15:30N 44°21' E 009°01'0 0.1
2018-Apr-15 14:57N 44°21' E 009°01'1 2.3
2018-Apr-15 14:30N 44°21' E 009°00'5 9.2
2018-Apr-15 14:00N 44°16' E 009°00'5 9.7
2018-Apr-15 13:31N 44°11' E 009°01'2 3.7
2018-Apr-15 13:00N 44°10' E 009°03'4 8.5
2018-Apr-15 12:30N 44°07' E 009°06'4 9.0
2018-Apr-15 12:00N 44°02' E 009°09'611.2
2018-Apr-15 11:30N 43°57' E 009°12'611.5
2018-Apr-15 11:00N 43°53' E 009°18'611.2
2018-Apr-15 10:30N 43°50' E 009°23'511.0
2018-Apr-15 10:00N 43°46' E 009°29'612.2
2018-Apr-15 09:30N 43°41' E 009°35'612.7
2018-Apr-15 09:00N 43°37' E 009°41'713.7
2018-Apr-15 08:30N 43°34' E 009°50'713.4
2018-Apr-15 08:00N 43°31' E 009°58'612.3
2018-Apr-15 07:30N 43°30' E 010°06'612.8
2018-Apr-15 07:00N 43°32' E 010°15'3 6.2
2018-Apr-15 06:30N 43°34' E 010°18'1 1.0
2018-Apr-15 05:59N 43°34' E 010°18'0 0.0
2018-Apr-15 05:29N 43°34' E 010°18'0 0.0
2018-Apr-15 04:59N 43°34' E 010°18'0 0.0
2018-Apr-15 04:31N 43°34' E 010°18'0 0.0
2018-Apr-15 04:00N 43°34' E 010°18'0 0.0
2018-Apr-15 03:31N 43°34' E 010°18'0 0.0
2018-Apr-15 03:00N 43°34' E 010°18'0 0.0
2018-Apr-15 02:30N 43°34' E 010°18'0 0.0
2018-Apr-15 02:01N 43°34' E 010°18'0 0.0
2018-Apr-15 01:30N 43°34' E 010°18'0 0.0
2018-Apr-15 01:00N 43°34' E 010°18'0 0.0
2018-Apr-15 00:30N 43°34' E 010°18'0 0.0
2018-Apr-15 00:00N 43°34' E 010°18'0 0.0
2018-Apr-14 23:31N 43°34' E 010°18'0 0.0
2018-Apr-14 23:00N 43°34' E 010°18'0 0.0
2018-Apr-14 22:31N 43°34' E 010°18'0 0.0
2018-Apr-14 22:00N 43°34' E 010°18'0 0.0
2018-Apr-14 21:30N 43°34' E 010°18'0 0.0
2018-Apr-14 21:01N 43°34' E 010°18'0 0.0
2018-Apr-14 20:31N 43°34' E 010°18'0 0.0
2018-Apr-14 20:00N 43°34' E 010°18'0 0.0
2018-Apr-14 19:30N 43°34' E 010°18'0 0.0
2018-Apr-14 19:00N 43°34' E 010°18'0 0.7
2018-Apr-14 18:30N 43°34' E 010°18'4 7.9
2018-Apr-14 18:01N 43°31' E 010°15'5 9.0
2018-Apr-14 17:30N 43°27' E 010°13'612.5
2018-Apr-14 17:01N 43°21' E 010°11'612.8
2018-Apr-14 16:31N 43°14' E 010°09'713.1
2018-Apr-14 16:01N 43°08' E 010°07'713.2
2018-Apr-14 15:31N 43°01' E 010°05'713.2
2018-Apr-14 15:00N 42°55' E 010°04'713.3
2018-Apr-14 14:31N 42°48' E 010°02'612.3
2018-Apr-14 14:01N 42°42' E 010°03'1213.2
2018-Apr-14 13:07N 42°34' E 010°15'312.9
2018-Apr-14 12:53N 42°33' E 010°18'513.0
2018-Apr-14 12:30N 42°29' E 010°23'1313.2
2018-Apr-14 11:31N 42°20' E 010°36'14913.1
2018-Apr-14 00:06N 40°44' E 013°08'213.5
2018-Apr-13 23:55N 40°43' E 013°11'613.4
2018-Apr-13 23:31N 40°41' E 013°18'713.3
2018-Apr-13 23:01N 40°39' E 013°26'713.1
2018-Apr-13 22:31N 40°37' E 013°35'713.0
2018-Apr-13 22:00N 40°37' E 013°43'612.9
2018-Apr-13 21:31N 40°37' E 013°52'613.0
2018-Apr-13 21:01N 40°37' E 014°00'612.2
2018-Apr-13 20:30N 40°40' E 014°07'713.4
2018-Apr-13 20:00N 40°45' E 014°14'611.2
2018-Apr-13 19:30N 40°50' E 014°17'1 1.4
2018-Apr-13 18:59N 40°50' E 014°17'0 0.0
2018-Apr-13 16:47N 40°50' E 014°17'0 0.0
2018-Apr-13 16:26N 40°50' E 014°17'0 0.0
2018-Apr-13 15:58N 40°50' E 014°17'0 0.0
2018-Apr-13 15:30N 40°50' E 014°17'0 0.0
2018-Apr-13 15:00N 40°50' E 014°17'0 0.0
2018-Apr-13 14:30N 40°50' E 014°17'0 0.0
2018-Apr-13 13:59N 40°50' E 014°17'0 0.0
2018-Apr-13 07:49N 40°50' E 014°17'0 0.0
2018-Apr-13 07:30N 40°50' E 014°17'0 0.0
2018-Apr-13 06:59N 40°50' E 014°17'0 0.0
2018-Apr-13 06:27N 40°50' E 014°17'0 0.0
2018-Apr-13 06:00N 40°50' E 014°17'0 0.0
2018-Apr-13 05:30N 40°50' E 014°17'1 1.8
2018-Apr-13 05:00N 40°49' E 014°17'2 3.2
2018-Apr-13 04:30N 40°48' E 014°18'1 1.2
2018-Apr-13 04:00N 40°48' E 014°18'0 0.7
2018-Apr-13 03:30N 40°48' E 014°18'2 3.7
2018-Apr-13 03:00N 40°46' E 014°17'  
Track history (hours):
 
Tides and Currents Weather Stations Pressure Air Temp Water Temp Dewpoint Dewpoint Depression Visibility Wind Speed Wind Dir Waves Ship Positions

Visitor

Last reported at 2018-Apr-23 02:48 UTC. Time now 2018-Apr-23 05:29 UTC.
Position N 37°25' E 015°22'.

Length 135 m; draft 7.8 m.

Type: Ship (hazmat cat D). MMSI: 255805839.

Date/timePositionNaut miles runAvg speedWind from/ knotsBaromVisibWave heightAir tempDewpointWater temp
2018-Apr-23 02:48N 37°25' E 015°22'410.5
2018-Apr-23 02:26N 37°23' E 015°26'1 0.4
2018-Apr-23 00:38N 37°24' E 015°27'0 0.5
2018-Apr-23 00:19N 37°24' E 015°27'0 0.5
2018-Apr-23 00:00N 37°24' E 015°27'0 0.3
2018-Apr-22 22:42N 37°24' E 015°27'0 0.2
2018-Apr-22 22:27N 37°24' E 015°27'0 0.2
2018-Apr-22 20:32N 37°24' E 015°27'1 6.1
2018-Apr-22 20:27N 37°24' E 015°28'6 7.8
2018-Apr-22 19:39N 37°31' E 015°29'0 0.4
2018-Apr-22 19:30N 37°30' E 015°29'0 0.4
2018-Apr-22 19:00N 37°30' E 015°29'0 0.4
2018-Apr-22 18:30N 37°30' E 015°29'0 0.5
2018-Apr-22 18:00N 37°30' E 015°29'2 0.6
2018-Apr-22 14:51N 37°28' E 015°30'0 0.8
2018-Apr-22 14:19N 37°28' E 015°31'0 0.8
2018-Apr-22 13:49N 37°28' E 015°31'12 3.7
2018-Apr-22 10:31N 37°40' E 015°31'011.7
2018-Apr-22 10:29N 37°40' E 015°31'611.7
2018-Apr-22 10:00N 37°46' E 015°31'811.5
2018-Apr-22 09:15N 37°55' E 015°31'413.6
2018-Apr-22 08:56N 37°59' E 015°32'716.4
2018-Apr-22 08:29N 38°06' E 015°34'816.0
2018-Apr-22 08:00N 38°14' E 015°36'611.7
2018-Apr-22 07:30N 38°18' E 015°41'612.8
2018-Apr-22 07:00N 38°23' E 015°36'713.3
2018-Apr-22 06:30N 38°28' E 015°30'612.9
2018-Apr-22 06:00N 38°33' E 015°24'712.9
2018-Apr-22 05:29N 38°37' E 015°18'612.7
2018-Apr-22 04:59N 38°42' E 015°13'611.3
2018-Apr-22 04:29N 38°44' E 015°06'712.5
2018-Apr-22 03:56N 38°44' E 014°57'4712.9
2018-Apr-22 00:17N 38°35' E 013°58'413.4
2018-Apr-22 00:01N 38°34' E 013°53'713.2
2018-Apr-21 23:30N 38°32' E 013°45'612.9
2018-Apr-21 23:00N 38°30' E 013°37'713.3
2018-Apr-21 22:31N 38°28' E 013°29'713.1
2018-Apr-21 22:01N 38°26' E 013°21'713.3
2018-Apr-21 21:31N 38°24' E 013°13'713.1
2018-Apr-21 21:00N 38°23' E 013°05'713.3
2018-Apr-21 20:31N 38°20' E 012°57'713.2
2018-Apr-21 20:00N 38°18' E 012°49'16 1.2
2018-Apr-21 06:40N 38°13' E 012°30'211.8
2018-Apr-21 06:28N 38°15' E 012°31'511.5
2018-Apr-21 06:00N 38°19' E 012°34'611.1
2018-Apr-21 05:30N 38°24' E 012°38'5911.5
2018-Apr-21 00:22N 39°16' E 013°14'411.6
2018-Apr-21 00:00N 39°20' E 013°17'611.4
2018-Apr-20 23:31N 39°25' E 013°20'611.4
2018-Apr-20 23:00N 39°30' E 013°23'611.4
2018-Apr-20 22:30N 39°35' E 013°26'611.4
2018-Apr-20 22:01N 39°40' E 013°30'611.7
2018-Apr-20 21:30N 39°45' E 013°34'611.9
2018-Apr-20 21:01N 39°50' E 013°37'611.8
2018-Apr-20 20:31N 39°56' E 013°41'611.6
2018-Apr-20 20:01N 40°01' E 013°44'611.5
2018-Apr-20 19:30N 40°06' E 013°48'611.8
2018-Apr-20 19:00N 40°11' E 013°51'611.9
2018-Apr-20 18:29N 40°16' E 013°56'612.4
2018-Apr-20 18:00N 40°22' E 013°59'612.4
2018-Apr-20 17:30N 40°27' E 014°03'612.4
2018-Apr-20 17:00N 40°33' E 014°07'612.6
2018-Apr-20 16:30N 40°38' E 014°10'612.4
2018-Apr-20 16:00N 40°43' E 014°15'510.4
2018-Apr-20 15:30N 40°48' E 014°17'2 4.2
2018-Apr-20 15:00N 40°50' E 014°17'0 0.0
2018-Apr-20 14:30N 40°50' E 014°17'0 0.0
2018-Apr-20 14:00N 40°50' E 014°17'0 0.0
2018-Apr-20 13:30N 40°50' E 014°17'0 0.0
2018-Apr-20 13:00N 40°50' E 014°17'0 0.0
2018-Apr-20 12:30N 40°50' E 014°17'0 0.0
2018-Apr-20 12:00N 40°50' E 014°17'0 0.0
2018-Apr-20 11:30N 40°50' E 014°17'0 0.0
2018-Apr-20 11:00N 40°50' E 014°17'0 0.0
2018-Apr-20 10:30N 40°50' E 014°17'0 0.0
2018-Apr-20 10:00N 40°50' E 014°17'0 0.0
2018-Apr-20 09:31N 40°50' E 014°17'0 0.0
2018-Apr-20 09:00N 40°50' E 014°17'0 0.0
2018-Apr-20 08:30N 40°50' E 014°17'0 0.0
2018-Apr-20 08:01N 40°50' E 014°17'0 0.0
2018-Apr-20 07:30N 40°50' E 014°17'0 0.0
2018-Apr-20 07:00N 40°50' E 014°17'0 0.0
2018-Apr-20 06:31N 40°50' E 014°17'0 0.0
2018-Apr-20 06:00N 40°50' E 014°17'0 0.1
2018-Apr-20 05:30N 40°50' E 014°17'1 3.0
2018-Apr-20 05:01N 40°49' E 014°17'510.9
2018-Apr-20 04:31N 40°44' E 014°14'714.6
2018-Apr-20 04:00N 40°39' E 014°07'714.4
2018-Apr-20 03:30N 40°37' E 013°58'915.3
2018-Apr-20 02:53N 40°37' E 013°45'615.2
2018-Apr-20 02:30N 40°37' E 013°38'714.6
2018-Apr-20 02:01N 40°38' E 013°28'714.4
2018-Apr-20 01:30N 40°41' E 013°19'814.4
2018-Apr-20 00:56N 40°44' E 013°09'14814.4
2018-Apr-19 14:39N 42°18' E 010°38'1014.4
2018-Apr-19 13:56N 42°25' E 010°27'1114.3
2018-Apr-19 13:12N 42°32' E 010°17'2712.5
2018-Apr-19 11:05N 42°57' E 010°04'214.4
2018-Apr-19 10:54N 42°59' E 010°04'615.0
2018-Apr-19 10:30N 43°05' E 010°05'714.7
2018-Apr-19 10:00N 43°13' E 010°07'815.2
2018-Apr-19 09:30N 43°20' E 010°09'815.6
2018-Apr-19 09:00N 43°28' E 010°12'510.2
2018-Apr-19 08:30N 43°32' E 010°16'3 6.2
2018-Apr-19 08:00N 43°34' E 010°18'0 0.5
2018-Apr-19 07:28N 43°35' E 010°18'0 0.0
2018-Apr-19 06:58N 43°35' E 010°18'0 0.0
2018-Apr-19 06:28N 43°35' E 010°18'0 0.0
2018-Apr-19 05:58N 43°35' E 010°18'0 0.0
2018-Apr-19 05:31N 43°35' E 010°18'0 0.0
2018-Apr-19 04:58N 43°35' E 010°18'0 0.0
2018-Apr-19 04:30N 43°35' E 010°18'0 0.0
2018-Apr-19 04:00N 43°35' E 010°18'0 0.0
2018-Apr-19 03:30N 43°35' E 010°18'0 0.0
2018-Apr-19 03:00N 43°35' E 010°18'0 0.0
2018-Apr-19 02:30N 43°35' E 010°18'0 0.0
2018-Apr-19 02:00N 43°35' E 010°18'0 0.0
2018-Apr-19 01:30N 43°35' E 010°18'0 0.0
2018-Apr-19 01:00N 43°35' E 010°18'0 0.0
2018-Apr-19 00:30N 43°35' E 010°18'0 0.0
2018-Apr-19 00:00N 43°35' E 010°18'0 0.0
2018-Apr-18 23:30N 43°35' E 010°18'0 0.0
2018-Apr-18 23:00N 43°35' E 010°18'0 0.0
2018-Apr-18 22:30N 43°35' E 010°18'0 0.0
2018-Apr-18 22:00N 43°35' E 010°18'0 0.0
2018-Apr-18 21:30N 43°35' E 010°18'0 0.0
2018-Apr-18 21:00N 43°35' E 010°18'0 0.0
2018-Apr-18 20:30N 43°35' E 010°18'0 0.0
2018-Apr-18 20:00N 43°35' E 010°18'0 0.0
2018-Apr-18 19:30N 43°35' E 010°18'0 0.0
2018-Apr-18 19:00N 43°35' E 010°18'0 0.0
2018-Apr-18 18:30N 43°35' E 010°18'1 2.4
2018-Apr-18 18:00N 43°33' E 010°18'3 6.6
2018-Apr-18 17:30N 43°31' E 010°15'0 0.5
2018-Apr-18 17:00N 43°31' E 010°16'2 4.1
2018-Apr-18 16:30N 43°29' E 010°16'1 2.8
2018-Apr-18 16:00N 43°27' E 010°16'0 0.6
2018-Apr-18 15:30N 43°27' E 010°16'2 3.3
2018-Apr-18 15:00N 43°28' E 010°15'5 9.6
2018-Apr-18 14:30N 43°29' E 010°08'612.5
2018-Apr-18 14:00N 43°31' E 009°60'612.8
2018-Apr-18 13:30N 43°33' E 009°52'612.9
2018-Apr-18 13:00N 43°36' E 009°44'713.8
2018-Apr-18 12:30N 43°40' E 009°36'713.5
2018-Apr-18 12:00N 43°45' E 009°30'713.3
2018-Apr-18 11:30N 43°49' E 009°23'713.2
2018-Apr-18 11:00N 43°54' E 009°16'713.2
2018-Apr-18 10:30N 43°59' E 009°10'713.3
2018-Apr-18 10:00N 44°04' E 009°04'713.2
2018-Apr-18 09:30N 44°09' E 008°58'613.0
2018-Apr-18 09:00N 44°13' E 008°51'713.1
2018-Apr-18 08:30N 44°18' E 008°46'611.7
2018-Apr-18 08:00N 44°24' E 008°44'3 5.3
2018-Apr-18 07:29N 44°25' E 008°48'0 0.0
2018-Apr-18 06:59N 44°25' E 008°48'0 0.0
2018-Apr-18 06:29N 44°25' E 008°48'0 0.0
2018-Apr-18 05:59N 44°25' E 008°48'0 0.0
2018-Apr-18 05:29N 44°25' E 008°48'0 0.0
2018-Apr-18 04:59N 44°25' E 008°48'0 0.0
2018-Apr-18 04:29N 44°25' E 008°48'0 0.0
2018-Apr-18 03:59N 44°25' E 008°48'0 0.0
2018-Apr-18 03:23N 44°25' E 008°48'0 0.0
2018-Apr-18 02:59N 44°25' E 008°48'0 0.0
2018-Apr-18 02:29N 44°25' E 008°48'0 0.0
2018-Apr-18 01:59N 44°25' E 008°48'0 0.0
2018-Apr-18 01:29N 44°25' E 008°48'0 0.0
2018-Apr-18 00:53N 44°25' E 008°48'0 0.0
2018-Apr-18 00:26N 44°25' E 008°48'0 0.0
2018-Apr-17 23:59N 44°25' E 008°48'0 0.0
2018-Apr-17 23:29N 44°25' E 008°48'0 0.0
2018-Apr-17 22:59N 44°25' E 008°48'0 0.0
2018-Apr-17 22:29N 44°25' E 008°48'0 0.0
2018-Apr-17 21:59N 44°25' E 008°48'0 0.0
2018-Apr-17 21:29N 44°25' E 008°48'0 0.0
2018-Apr-17 20:59N 44°25' E 008°48'0 0.0
2018-Apr-17 20:29N 44°25' E 008°48'0 0.0
2018-Apr-17 19:59N 44°25' E 008°48'0 0.0
2018-Apr-17 19:29N 44°25' E 008°48'0 0.0
2018-Apr-17 18:59N 44°25' E 008°48'0 0.0
2018-Apr-17 18:29N 44°25' E 008°48'0 0.0
2018-Apr-17 17:59N 44°25' E 008°48'0 0.0
2018-Apr-17 17:29N 44°25' E 008°48'0 0.0
2018-Apr-17 17:00N 44°25' E 008°48'0 0.0
2018-Apr-17 16:30N 44°25' E 008°48'0 0.0
2018-Apr-17 16:00N 44°25' E 008°48'0 0.0
2018-Apr-17 15:30N 44°25' E 008°48'0 0.0
2018-Apr-17 15:00N 44°25' E 008°48'0 0.0
2018-Apr-17 14:30N 44°25' E 008°48'0 0.0
2018-Apr-17 14:00N 44°25' E 008°48'0 0.0
2018-Apr-17 13:30N 44°25' E 008°48'0 0.0
2018-Apr-17 13:00N 44°25' E 008°48'0 0.0
2018-Apr-17 12:30N 44°25' E 008°48'0 0.0
2018-Apr-17 12:00N 44°25' E 008°48'0 0.0
2018-Apr-17 11:30N 44°25' E 008°48'0 0.0
2018-Apr-17 11:00N 44°25' E 008°48'2 4.0
2018-Apr-17 10:30N 44°25' E 008°45'2 3.8
2018-Apr-17 10:00N 44°23' E 008°44'4 7.1
2018-Apr-17 09:30N 44°19' E 008°45'4 7.4
2018-Apr-17 09:00N 44°19' E 008°50'4 7.7
2018-Apr-17 08:30N 44°19' E 008°55'3 6.7
2018-Apr-17 08:00N 44°22' E 008°57'3 6.3
2018-Apr-17 07:29N 44°24' E 008°54'0 0.0
2018-Apr-17 06:59N 44°24' E 008°54'0 0.0
2018-Apr-17 06:29N 44°24' E 008°54'0 0.0
2018-Apr-17 05:59N 44°24' E 008°54'0 0.0
2018-Apr-17 05:29N 44°24' E 008°54'0 0.0
2018-Apr-17 04:59N 44°24' E 008°54'0 0.0
2018-Apr-17 04:29N 44°24' E 008°54'0 0.0
2018-Apr-17 03:59N 44°24' E 008°54'0 0.0
2018-Apr-17 03:29N 44°24' E 008°54'0 0.0
2018-Apr-17 02:56N 44°24' E 008°54'0 0.0
2018-Apr-17 02:29N 44°24' E 008°54'0 0.0
2018-Apr-17 01:59N 44°24' E 008°54'0 0.0
2018-Apr-17 01:29N 44°24' E 008°54'0 0.0
2018-Apr-17 00:59N 44°24' E 008°54'0 0.0
2018-Apr-17 00:29N 44°24' E 008°54'0 0.0
2018-Apr-16 23:59N 44°24' E 008°54'0 0.0
2018-Apr-16 23:29N 44°24' E 008°54'0 0.0
2018-Apr-16 22:59N 44°24' E 008°54'0 0.0
2018-Apr-16 22:29N 44°24' E 008°54'0 1.0
2018-Apr-16 22:00N 44°24' E 008°54'0 0.9
2018-Apr-16 21:28N 44°24' E 008°55'0 0.0
2018-Apr-16 20:55N 44°24' E 008°55'0 0.0
2018-Apr-16 20:28N 44°24' E 008°55'0 0.0
2018-Apr-16 19:58N 44°24' E 008°55'0 0.0
2018-Apr-16 19:28N 44°24' E 008°55'0 0.0
2018-Apr-16 18:58N 44°24' E 008°55'0 0.0
2018-Apr-16 18:28N 44°24' E 008°55'0 0.0
2018-Apr-16 17:58N 44°24' E 008°55'0 0.0
2018-Apr-16 17:28N 44°24' E 008°55'0 0.0
2018-Apr-16 16:58N 44°24' E 008°55'0 0.0
2018-Apr-16 16:30N 44°24' E 008°55'0 0.0
2018-Apr-16 16:00N 44°24' E 008°55'0 0.0
2018-Apr-16 15:30N 44°24' E 008°55'0 0.0
2018-Apr-16 15:00N 44°24' E 008°55'0 0.0
2018-Apr-16 14:30N 44°24' E 008°55'0 0.0
2018-Apr-16 14:00N 44°24' E 008°55'0 0.0
2018-Apr-16 13:30N 44°24' E 008°55'0 0.0
2018-Apr-16 13:00N 44°24' E 008°55'0 0.0
2018-Apr-16 12:30N 44°24' E 008°55'0 0.0
2018-Apr-16 12:00N 44°24' E 008°55'0 0.0
2018-Apr-16 11:30N 44°24' E 008°55'0 0.0
2018-Apr-16 11:00N 44°24' E 008°55'0 0.0
2018-Apr-16 10:30N 44°24' E 008°55'0 0.0
2018-Apr-16 10:00N 44°24' E 008°55'0 0.0
2018-Apr-16 09:30N 44°24' E 008°55'0 0.1
2018-Apr-16 09:00N 44°24' E 008°55'2 4.6
2018-Apr-16 08:30N 44°23' E 008°57'3 5.2
2018-Apr-16 08:00N 44°22' E 009°01'0 0.3
2018-Apr-16 07:30N 44°22' E 009°01'0 0.3
2018-Apr-16 07:00N 44°21' E 009°01'0 0.1
2018-Apr-16 06:30N 44°21' E 009°01'0 0.1
2018-Apr-16 06:00N 44°22' E 009°01'0 0.1
2018-Apr-16 05:30N 44°21' E 009°01'0 0.2
2018-Apr-16 05:00N 44°21' E 009°01'0 0.0
2018-Apr-16 04:27N 44°21' E 009°01'0 0.1
2018-Apr-16 03:57N 44°21' E 009°01'0 0.1
2018-Apr-16 03:30N 44°21' E 009°01'0 0.2
2018-Apr-16 03:00N 44°22' E 009°01'0 0.0
2018-Apr-16 02:30N 44°22' E 009°01'0 0.0
2018-Apr-16 02:00N 44°22' E 009°01'0 0.1
2018-Apr-16 01:30N 44°22' E 009°01'0 0.3
2018-Apr-16 01:00N 44°21' E 009°01'0 0.1
2018-Apr-16 00:30N 44°21' E 009°01'0 0.1
2018-Apr-16 00:00N 44°21' E 009°01'0 0.0
2018-Apr-15 23:30N 44°21' E 009°01'0 0.1
2018-Apr-15 23:00N 44°21' E 009°01'0 0.0
2018-Apr-15 22:30N 44°21' E 009°01'0 0.1
2018-Apr-15 22:00N 44°21' E 009°01'0 0.0
2018-Apr-15 21:30N 44°21' E 009°01'0 0.0
2018-Apr-15 20:57N 44°21' E 009°01'0 0.0
2018-Apr-15 20:30N 44°21' E 009°01'0 0.1
2018-Apr-15 20:00N 44°21' E 009°01'0 0.1
2018-Apr-15 19:30N 44°21' E 009°01'0 0.0
2018-Apr-15 19:00N 44°21' E 009°01'0 0.0
2018-Apr-15 18:30N 44°21' E 009°01'0 0.0
2018-Apr-15 18:00N 44°21' E 009°01'0 0.0
2018-Apr-15 17:30N 44°21' E 009°01'0 0.0
2018-Apr-15 17:00N 44°21' E 009°01'0 0.1
2018-Apr-15 16:27N 44°21' E 009°01'0 0.0
2018-Apr-15 16:00N 44°21' E 009°01'0 0.0
2018-Apr-15 15:30N 44°21' E 009°01'0 0.1
2018-Apr-15 14:57N 44°21' E 009°01'1 2.3
2018-Apr-15 14:30N 44°21' E 009°00'5 9.2
2018-Apr-15 14:00N 44°16' E 009°00'5 9.7
2018-Apr-15 13:31N 44°11' E 009°01'2 3.7
2018-Apr-15 13:00N 44°10' E 009°03'4 8.5
2018-Apr-15 12:30N 44°07' E 009°06'4 9.0
2018-Apr-15 12:00N 44°02' E 009°09'611.2
2018-Apr-15 11:30N 43°57' E 009°12'611.5
2018-Apr-15 11:00N 43°53' E 009°18'611.2
2018-Apr-15 10:30N 43°50' E 009°23'511.0
2018-Apr-15 10:00N 43°46' E 009°29'612.2
2018-Apr-15 09:30N 43°41' E 009°35'612.7
2018-Apr-15 09:00N 43°37' E 009°41'713.7
2018-Apr-15 08:30N 43°34' E 009°50'713.4
2018-Apr-15 08:00N 43°31' E 009°58'612.3
2018-Apr-15 07:30N 43°30' E 010°06'612.8
2018-Apr-15 07:00N 43°32' E 010°15'3 6.2
2018-Apr-15 06:30N 43°34' E 010°18'1 1.0
2018-Apr-15 05:59N 43°34' E 010°18'0 0.0
2018-Apr-15 05:29N 43°34' E 010°18'0 0.0
2018-Apr-15 04:59N 43°34' E 010°18'0 0.0
2018-Apr-15 04:31N 43°34' E 010°18'0 0.0
2018-Apr-15 04:00N 43°34' E 010°18'0 0.0
2018-Apr-15 03:31N 43°34' E 010°18'0 0.0
2018-Apr-15 03:00N 43°34' E 010°18'0 0.0
2018-Apr-15 02:30N 43°34' E 010°18'0 0.0
2018-Apr-15 02:01N 43°34' E 010°18'0 0.0
2018-Apr-15 01:30N 43°34' E 010°18'0 0.0
2018-Apr-15 01:00N 43°34' E 010°18'0 0.0
2018-Apr-15 00:30N 43°34' E 010°18'0 0.0
2018-Apr-15 00:00N 43°34' E 010°18'0 0.0
2018-Apr-14 23:31N 43°34' E 010°18'0 0.0
2018-Apr-14 23:00N 43°34' E 010°18'0 0.0
2018-Apr-14 22:31N 43°34' E 010°18'0 0.0
2018-Apr-14 22:00N 43°34' E 010°18'0 0.0
2018-Apr-14 21:30N 43°34' E 010°18'0 0.0
2018-Apr-14 21:01N 43°34' E 010°18'0 0.0
2018-Apr-14 20:31N 43°34' E 010°18'0 0.0
2018-Apr-14 20:00N 43°34' E 010°18'0 0.0
2018-Apr-14 19:30N 43°34' E 010°18'0 0.0
2018-Apr-14 19:00N 43°34' E 010°18'0 0.7
2018-Apr-14 18:30N 43°34' E 010°18'4 7.9
2018-Apr-14 18:01N 43°31' E 010°15'5 9.0
2018-Apr-14 17:30N 43°27' E 010°13'612.5
2018-Apr-14 17:01N 43°21' E 010°11'612.8
2018-Apr-14 16:31N 43°14' E 010°09'713.1
2018-Apr-14 16:01N 43°08' E 010°07'713.2
2018-Apr-14 15:31N 43°01' E 010°05'713.2
2018-Apr-14 15:00N 42°55' E 010°04'713.3
2018-Apr-14 14:31N 42°48' E 010°02'612.3
2018-Apr-14 14:01N 42°42' E 010°03'1213.2
2018-Apr-14 13:07N 42°34' E 010°15'312.9
2018-Apr-14 12:53N 42°33' E 010°18'513.0
2018-Apr-14 12:30N 42°29' E 010°23'1313.2
2018-Apr-14 11:31N 42°20' E 010°36'14913.1
2018-Apr-14 00:06N 40°44' E 013°08'213.5
2018-Apr-13 23:55N 40°43' E 013°11'613.4
2018-Apr-13 23:31N 40°41' E 013°18'713.3
2018-Apr-13 23:01N 40°39' E 013°26'713.1
2018-Apr-13 22:31N 40°37' E 013°35'713.0
2018-Apr-13 22:00N 40°37' E 013°43'612.9
2018-Apr-13 21:31N 40°37' E 013°52'613.0
2018-Apr-13 21:01N 40°37' E 014°00'612.2
2018-Apr-13 20:30N 40°40' E 014°07'713.4
2018-Apr-13 20:00N 40°45' E 014°14'611.2
2018-Apr-13 19:30N 40°50' E 014°17'1 1.4
2018-Apr-13 18:59N 40°50' E 014°17'0 0.0
2018-Apr-13 16:47N 40°50' E 014°17'0 0.0
2018-Apr-13 16:26N 40°50' E 014°17'0 0.0
2018-Apr-13 15:58N 40°50' E 014°17'0 0.0
2018-Apr-13 15:30N 40°50' E 014°17'0 0.0
2018-Apr-13 15:00N 40°50' E 014°17'0 0.0
2018-Apr-13 14:30N 40°50' E 014°17'0 0.0
2018-Apr-13 13:59N 40°50' E 014°17'0 0.0
2018-Apr-13 07:49N 40°50' E 014°17'0 0.0
2018-Apr-13 07:30N 40°50' E 014°17'0 0.0
2018-Apr-13 06:59N 40°50' E 014°17'0 0.0
2018-Apr-13 06:27N 40°50' E 014°17'0 0.0
2018-Apr-13 06:00N 40°50' E 014°17'0 0.0
2018-Apr-13 05:30N 40°50' E 014°17'1 1.8
2018-Apr-13 05:00N 40°49' E 014°17'2 3.2
2018-Apr-13 04:30N 40°48' E 014°18'1 1.2
2018-Apr-13 04:00N 40°48' E 014°18'0 0.7
2018-Apr-13 03:30N 40°48' E 014°18'2 3.7
2018-Apr-13 03:00N 40°46' E 014°17'  

Dump ship's entire track history